createdAt,value
2023-03-20T00:00:17.953Z,52.30
2023-03-20T00:03:07.302Z,52.40
2023-03-20T00:05:56.622Z,52.40
2023-03-20T00:08:49.107Z,52.50
2023-03-20T00:11:45.957Z,52.60
2023-03-20T00:14:36.291Z,52.80
2023-03-20T00:17:26.033Z,52.80
2023-03-20T00:20:17.435Z,52.80
2023-03-20T00:23:06.903Z,52.80
2023-03-20T00:25:58.194Z,52.90
2023-03-20T00:28:49.037Z,52.90
2023-03-20T00:31:40.941Z,52.90
2023-03-20T00:34:31.554Z,52.90
2023-03-20T00:37:20.894Z,53.00
2023-03-20T00:40:12.793Z,53.10
2023-03-20T00:43:06.056Z,53.10
2023-03-20T00:45:55.397Z,53.10
2023-03-20T00:48:45.082Z,53.10
2023-03-20T00:51:34.402Z,53.10
2023-03-20T00:54:23.744Z,53.00
2023-03-20T00:57:20.482Z,53.00
2023-03-20T01:00:38.781Z,53.20
2023-03-20T01:03:30.048Z,53.40
2023-03-20T01:06:19.678Z,53.10
2023-03-20T01:09:09.617Z,53.10
2023-03-20T01:12:00.771Z,53.20
2023-03-20T01:14:55.872Z,53.30
2023-03-20T01:17:46.850Z,53.40
2023-03-20T01:20:36.265Z,53.40
2023-03-20T01:23:26.738Z,53.30
2023-03-20T01:26:30.652Z,53.40
2023-03-20T01:29:23.184Z,53.80
2023-03-20T01:32:15.260Z,53.50
2023-03-20T01:35:10.039Z,53.50
2023-03-20T01:37:59.369Z,53.60
2023-03-20T01:40:57.162Z,53.50
2023-03-20T01:43:47.830Z,53.80
2023-03-20T01:46:40.601Z,53.70
2023-03-20T01:50:27.344Z,53.70
2023-03-20T01:53:34.593Z,54.20
2023-03-20T01:56:24.617Z,53.50
2023-03-20T01:59:19.181Z,53.70
2023-03-20T02:02:10.288Z,53.70
2023-03-20T02:05:05.349Z,53.70
2023-03-20T02:08:14.118Z,53.90
2023-03-20T02:11:05.997Z,54.90
2023-03-20T02:13:59.880Z,53.90
2023-03-20T02:16:54.333Z,54.00
2023-03-20T02:20:10.617Z,54.00
2023-03-20T02:23:39.787Z,54.00
2023-03-20T02:26:46.197Z,54.40
2023-03-20T02:30:12.570Z,54.20
2023-03-20T02:34:27.565Z,54.30
2023-03-20T02:37:48.882Z,54.50
2023-03-20T02:40:46.034Z,54.40
2023-03-20T02:43:45.018Z,54.00
2023-03-20T02:46:44.662Z,54.10
2023-03-20T02:49:56.574Z,54.10
2023-03-20T02:52:58.719Z,54.20
2023-03-20T02:55:55.775Z,54.10
2023-03-20T02:58:52.401Z,54.10
2023-03-20T03:01:48.413Z,54.20
2023-03-20T03:04:41.213Z,54.20
2023-03-20T03:07:34.384Z,54.20
2023-03-20T03:10:30.408Z,54.20
2023-03-20T03:13:26.424Z,54.30
2023-03-20T03:16:21.391Z,54.30
2023-03-20T03:19:18.195Z,54.30
2023-03-20T03:22:08.361Z,54.30
2023-03-20T03:24:57.906Z,54.20
2023-03-20T03:27:54.485Z,54.30
2023-03-20T03:30:46.725Z,54.40
2023-03-20T03:33:38.340Z,54.30
2023-03-20T03:36:39.922Z,54.30
2023-03-20T03:39:38.958Z,54.60
2023-03-20T03:42:34.744Z,54.50
2023-03-20T03:45:34.081Z,54.60
2023-03-20T03:48:28.002Z,54.50
2023-03-20T03:51:22.474Z,54.40
2023-03-20T03:54:30.588Z,54.40
2023-03-20T03:57:51.391Z,54.40
2023-03-20T04:00:46.320Z,54.40
2023-03-20T04:03:41.529Z,54.50
2023-03-20T04:06:31.328Z,54.50
2023-03-20T04:09:20.664Z,54.40
2023-03-20T04:12:35.902Z,54.50
2023-03-20T04:15:27.655Z,54.80
2023-03-20T04:18:20.556Z,54.50
2023-03-20T04:21:11.726Z,54.70
2023-03-20T04:24:01.265Z,54.60
2023-03-20T04:26:50.812Z,54.70
2023-03-20T04:29:40.638Z,54.60
2023-03-20T04:32:52.968Z,54.60
2023-03-20T04:35:58.828Z,54.60
2023-03-20T04:38:48.583Z,54.70
2023-03-20T04:41:37.925Z,54.70
2023-03-20T04:44:27.367Z,54.80
2023-03-20T04:47:16.811Z,54.80
2023-03-20T04:50:08.104Z,54.80
2023-03-20T04:53:00.130Z,54.80
2023-03-20T04:55:51.027Z,54.80
2023-03-20T04:58:40.851Z,54.80
2023-03-20T05:01:30.409Z,54.80
2023-03-20T05:04:20.093Z,54.90
2023-03-20T05:07:09.643Z,54.90
2023-03-20T05:10:13.316Z,54.90
2023-03-20T05:13:13.220Z,54.90
2023-03-20T05:16:35.168Z,54.60
2023-03-20T05:19:57.347Z,54.50
2023-03-20T05:23:00.931Z,54.60
2023-03-20T05:26:10.382Z,54.60
2023-03-20T05:29:18.090Z,54.60
2023-03-20T05:32:26.128Z,54.70
2023-03-20T05:35:35.992Z,54.70
2023-03-20T05:38:39.189Z,54.80
2023-03-20T05:41:53.144Z,55.00
2023-03-20T05:45:11.224Z,55.60
2023-03-20T05:48:13.884Z,55.10
2023-03-20T05:51:22.021Z,55.30
2023-03-20T05:54:21.028Z,55.50
2023-03-20T05:57:34.819Z,55.60
2023-03-20T06:00:42.774Z,55.80
2023-03-20T06:04:00.973Z,55.70
2023-03-20T06:07:21.612Z,55.90
2023-03-20T06:10:20.722Z,56.70
2023-03-20T06:13:13.004Z,56.30
2023-03-20T06:16:03.415Z,56.70
2023-03-20T06:18:53.013Z,57.20
2023-03-20T06:21:42.600Z,57.20
2023-03-20T06:24:36.080Z,57.30
2023-03-20T06:27:27.199Z,57.40
2023-03-20T06:30:19.245Z,58.00
2023-03-20T06:33:09.908Z,59.10
2023-03-20T06:36:12.330Z,60.40
2023-03-20T06:39:02.098Z,61.60
2023-03-20T06:41:51.632Z,62.10
2023-03-20T06:44:45.393Z,62.30
2023-03-20T06:47:58.990Z,61.60
2023-03-20T06:50:48.504Z,61.30
2023-03-20T06:53:41.600Z,61.50
2023-03-20T06:56:37.593Z,61.60
2023-03-20T06:59:27.156Z,61.80
2023-03-20T07:02:20.883Z,61.00
2023-03-20T07:05:12.201Z,59.80
2023-03-20T07:08:01.992Z,58.30
2023-03-20T07:10:51.771Z,57.10
2023-03-20T07:13:41.646Z,56.00
2023-03-20T07:16:48.884Z,55.20
2023-03-20T07:19:38.881Z,54.90
2023-03-20T07:22:31.718Z,54.80
2023-03-20T07:25:42.880Z,54.70
2023-03-20T07:28:36.902Z,55.20
2023-03-20T07:31:46.413Z,57.10
2023-03-20T07:34:47.523Z,59.60
2023-03-20T07:37:41.442Z,61.90
2023-03-20T07:40:30.880Z,61.50
2023-03-20T07:43:27.243Z,60.10
2023-03-20T07:46:22.564Z,58.70
2023-03-20T07:49:11.994Z,57.50
2023-03-20T07:52:01.465Z,56.40
2023-03-20T07:54:53.885Z,55.70
2023-03-20T07:57:43.733Z,54.90
2023-03-20T08:00:34.672Z,54.60
2023-03-20T08:03:24.121Z,54.30
2023-03-20T08:06:13.627Z,54.00
2023-03-20T08:09:03.299Z,53.70
2023-03-20T08:11:54.152Z,53.70
2023-03-20T08:14:44.173Z,53.40
2023-03-20T08:17:33.518Z,53.30
2023-03-20T08:20:24.973Z,53.40
2023-03-20T08:23:14.210Z,53.50
2023-03-20T08:26:03.762Z,53.70
2023-03-20T08:28:54.612Z,53.80
2023-03-20T08:31:44.011Z,54.00
2023-03-20T08:34:33.746Z,53.90
2023-03-20T08:37:23.463Z,53.80
2023-03-20T08:40:14.131Z,53.70
2023-03-20T08:43:03.774Z,53.50
2023-03-20T08:45:55.497Z,53.70
2023-03-20T08:48:44.846Z,54.30
2023-03-20T08:51:34.354Z,54.60
2023-03-20T08:54:24.050Z,54.60
2023-03-20T08:57:13.470Z,54.40
2023-03-20T09:00:03.073Z,54.10
2023-03-20T09:02:54.029Z,53.90
2023-03-20T09:05:44.489Z,54.00
2023-03-20T09:08:33.950Z,54.10
2023-03-20T09:11:23.398Z,54.40
2023-03-20T09:14:12.916Z,54.70
2023-03-20T09:17:02.252Z,55.00
2023-03-20T09:19:53.643Z,55.00
2023-03-20T09:22:43.876Z,56.30
2023-03-20T09:25:33.680Z,58.50
2023-03-20T09:28:23.136Z,60.10
2023-03-20T09:31:13.439Z,60.30
2023-03-20T09:34:02.846Z,59.30
2023-03-20T09:36:53.745Z,58.10
2023-03-20T09:39:43.080Z,56.90
2023-03-20T09:42:45.201Z,56.10
2023-03-20T09:45:46.568Z,55.10
2023-03-20T09:48:42.655Z,54.30
2023-03-20T09:51:40.046Z,53.80
2023-03-20T09:54:52.778Z,53.30
2023-03-20T09:57:46.754Z,53.00
2023-03-20T10:00:37.287Z,52.80
2023-03-20T10:03:32.939Z,52.80
2023-03-20T10:06:22.276Z,52.80
2023-03-20T10:09:19.449Z,52.80
2023-03-20T10:12:37.264Z,53.70
2023-03-20T10:15:42.352Z,53.40
2023-03-20T10:18:35.714Z,53.70
2023-03-20T10:21:35.959Z,54.40
2023-03-20T10:24:32.745Z,54.80
2023-03-20T10:27:28.291Z,55.10
2023-03-20T10:30:36.584Z,55.30
2023-03-20T10:33:46.892Z,55.10
2023-03-20T10:36:54.197Z,55.20
2023-03-20T10:39:58.359Z,55.20
2023-03-20T10:42:53.040Z,54.90
2023-03-20T10:45:45.820Z,54.60
2023-03-20T10:48:39.474Z,54.40
2023-03-20T10:51:41.503Z,53.90
2023-03-20T10:54:35.349Z,53.70
2023-03-20T10:57:27.181Z,53.50
2023-03-20T11:00:22.492Z,53.40
2023-03-20T11:03:23.060Z,53.50
2023-03-20T11:06:20.642Z,53.60
2023-03-20T11:09:18.679Z,53.80
2023-03-20T11:12:18.094Z,53.90
2023-03-20T11:15:23.120Z,53.90
2023-03-20T11:18:14.998Z,53.70
2023-03-20T11:21:05.461Z,53.70
2023-03-20T11:23:56.046Z,53.80
2023-03-20T11:26:45.846Z,53.90
2023-03-20T11:29:36.161Z,54.10
2023-03-20T11:32:32.376Z,54.20
2023-03-20T11:35:28.331Z,54.10
2023-03-20T11:38:21.739Z,54.00
2023-03-20T11:41:20.421Z,53.90
2023-03-20T11:44:24.825Z,53.70
2023-03-20T11:47:21.640Z,53.50
2023-03-20T11:50:32.742Z,53.30
2023-03-20T11:53:26.621Z,53.40
2023-03-20T11:56:23.672Z,53.20
2023-03-20T11:59:18.235Z,53.20
2023-03-20T12:02:23.334Z,53.40
2023-03-20T12:05:32.899Z,53.80
2023-03-20T12:08:26.664Z,54.00
2023-03-20T12:11:42.387Z,54.00
2023-03-20T12:14:44.692Z,55.00
2023-03-20T12:17:45.272Z,55.60
2023-03-20T12:20:42.677Z,56.20
2023-03-20T12:23:37.302Z,57.00
2023-03-20T12:26:33.767Z,56.10
2023-03-20T12:29:31.631Z,56.00
2023-03-20T12:32:27.829Z,55.60
2023-03-20T12:35:22.125Z,55.10
2023-03-20T12:38:28.176Z,54.70
2023-03-20T12:41:26.477Z,54.40
2023-03-20T12:44:32.021Z,54.10
2023-03-20T12:47:54.904Z,54.00
2023-03-20T12:50:50.434Z,53.90
2023-03-20T12:53:54.705Z,53.50
2023-03-20T12:57:06.768Z,53.60
2023-03-20T13:00:16.210Z,54.00
2023-03-20T13:03:29.383Z,54.10
2023-03-20T13:06:28.522Z,54.30
2023-03-20T13:09:49.575Z,54.30
2023-03-20T13:12:51.667Z,54.40
2023-03-20T13:15:59.281Z,54.20
2023-03-20T13:19:00.173Z,54.50
2023-03-20T13:21:58.366Z,54.40
2023-03-20T13:24:52.127Z,54.70
2023-03-20T13:27:47.958Z,54.50
2023-03-20T13:30:44.296Z,54.60
2023-03-20T13:33:46.614Z,54.50
2023-03-20T13:36:53.270Z,54.80
2023-03-20T13:39:49.797Z,54.60
2023-03-20T13:42:45.805Z,54.40
2023-03-20T13:45:39.874Z,54.60
2023-03-20T13:48:34.476Z,54.90
2023-03-20T13:51:30.936Z,55.80
2023-03-20T13:54:39.336Z,55.40
2023-03-20T13:57:58.132Z,55.50
2023-03-20T14:00:51.709Z,55.40
2023-03-20T14:03:46.214Z,55.00
2023-03-20T14:06:53.614Z,55.00
2023-03-20T14:09:42.882Z,55.40
2023-03-20T14:12:34.541Z,55.00
2023-03-20T14:15:28.495Z,55.00
2023-03-20T14:18:20.126Z,55.00
2023-03-20T14:21:14.724Z,54.90
2023-03-20T14:24:06.774Z,54.90
2023-03-20T14:26:59.169Z,54.70
2023-03-20T14:29:49.797Z,54.80
2023-03-20T14:32:54.848Z,54.80
2023-03-20T14:35:47.257Z,55.30
2023-03-20T14:38:41.119Z,55.00
2023-03-20T14:41:42.490Z,55.10
2023-03-20T14:44:50.067Z,55.30
2023-03-20T14:47:48.354Z,55.60
2023-03-20T14:50:43.017Z,55.80
2023-03-20T14:53:33.376Z,56.10
2023-03-20T14:56:32.018Z,56.20
2023-03-20T14:59:23.599Z,56.60
2023-03-20T15:02:27.676Z,56.90
2023-03-20T15:05:29.319Z,56.40
2023-03-20T15:08:26.291Z,56.20
2023-03-20T15:11:17.187Z,56.00
2023-03-20T15:14:09.613Z,55.70
2023-03-20T15:17:01.178Z,55.70
2023-03-20T15:19:52.087Z,55.70
2023-03-20T15:22:50.692Z,55.80
2023-03-20T15:25:43.861Z,55.90
2023-03-20T15:28:36.794Z,55.70
2023-03-20T15:31:30.843Z,55.60
2023-03-20T15:34:24.578Z,55.80
2023-03-20T15:37:18.931Z,55.70
2023-03-20T15:40:15.116Z,55.70
2023-03-20T15:43:12.955Z,55.80
2023-03-20T15:46:17.390Z,55.60
2023-03-20T15:49:07.615Z,55.50
2023-03-20T15:52:01.268Z,55.60
2023-03-20T15:54:52.396Z,55.70
2023-03-20T15:57:44.970Z,55.70
2023-03-20T16:00:36.602Z,55.80
2023-03-20T16:03:26.377Z,55.80
2023-03-20T16:06:20.756Z,55.90
2023-03-20T16:09:15.430Z,56.20
2023-03-20T16:12:17.596Z,55.90
2023-03-20T16:15:08.487Z,56.40
2023-03-20T16:18:00.651Z,56.00
2023-03-20T16:20:55.634Z,56.10
2023-03-20T16:23:49.818Z,56.20
2023-03-20T16:26:43.525Z,56.20
2023-03-20T16:29:34.825Z,56.20
2023-03-20T16:32:35.911Z,56.20
2023-03-20T16:35:31.629Z,56.60
2023-03-20T16:38:27.380Z,56.50
2023-03-20T16:41:23.074Z,56.70
2023-03-20T16:44:16.194Z,56.50
2023-03-20T16:47:20.208Z,56.50
2023-03-20T16:50:18.831Z,57.00
2023-03-20T16:53:13.343Z,56.70
2023-03-20T16:56:05.243Z,56.90
2023-03-20T16:58:56.734Z,56.70
2023-03-20T17:01:48.864Z,56.70
2023-03-20T17:04:42.002Z,56.80
2023-03-20T17:07:32.688Z,56.90
2023-03-20T17:10:24.505Z,56.90
2023-03-20T17:13:13.918Z,57.00
2023-03-20T17:16:03.432Z,57.00
2023-03-20T17:19:01.606Z,57.00
2023-03-20T17:21:52.492Z,57.60
2023-03-20T17:24:41.833Z,57.30
2023-03-20T17:27:31.756Z,57.20
2023-03-20T17:30:25.007Z,57.40
2023-03-20T17:33:16.581Z,57.50
2023-03-20T17:36:07.288Z,57.50
2023-03-20T17:38:59.460Z,57.70
2023-03-20T17:41:49.358Z,57.80
2023-03-20T17:44:38.707Z,57.80
2023-03-20T17:47:30.217Z,57.90
2023-03-20T17:50:24.382Z,57.90
2023-03-20T17:53:19.410Z,58.00
2023-03-20T17:56:15.037Z,58.30
2023-03-20T17:59:06.527Z,58.90
2023-03-20T18:01:56.580Z,58.00
2023-03-20T18:04:46.227Z,58.10
2023-03-20T18:07:36.163Z,58.20
2023-03-20T18:10:30.674Z,58.10
2023-03-20T18:13:22.089Z,58.30
2023-03-20T18:16:18.903Z,58.40
2023-03-20T18:19:08.248Z,58.80
2023-03-20T18:21:58.838Z,58.40
2023-03-20T18:24:48.132Z,58.50
2023-03-20T18:27:38.253Z,58.50
2023-03-20T18:30:34.924Z,58.40
2023-03-20T18:33:27.702Z,58.70
2023-03-20T18:36:19.150Z,58.50
2023-03-20T18:39:08.918Z,58.50
2023-03-20T18:41:58.199Z,58.50
2023-03-20T18:44:47.572Z,58.40
2023-03-20T18:47:38.285Z,58.40
2023-03-20T18:50:31.293Z,58.60
2023-03-20T18:53:20.758Z,58.90
2023-03-20T18:56:16.036Z,58.90
2023-03-20T18:59:08.062Z,59.50
2023-03-20T19:01:57.617Z,59.40
2023-03-20T19:04:48.538Z,59.50
2023-03-20T19:07:37.835Z,59.80
2023-03-20T19:10:30.689Z,59.70
2023-03-20T19:13:21.902Z,60.00
2023-03-20T19:16:22.280Z,59.80
2023-03-20T19:19:16.488Z,60.30
2023-03-20T19:22:13.062Z,60.40
2023-03-20T19:25:05.785Z,60.20
2023-03-20T19:27:55.248Z,60.20
2023-03-20T19:30:44.688Z,60.30
2023-03-20T19:33:34.380Z,60.20
2023-03-20T19:36:27.641Z,60.20
2023-03-20T19:39:18.372Z,60.40
2023-03-20T19:42:32.173Z,60.40
2023-03-20T19:45:17.390Z,60.20
2023-03-20T19:48:15.954Z,60.20
2023-03-20T19:51:06.043Z,60.80
2023-03-20T19:53:56.301Z,60.30
2023-03-20T19:56:47.019Z,60.30
2023-03-20T19:59:36.423Z,60.40
2023-03-20T20:02:25.880Z,60.20
2023-03-20T20:05:22.922Z,60.20
2023-03-20T20:08:27.678Z,60.60
2023-03-20T20:11:19.594Z,60.30
2023-03-20T20:14:13.480Z,60.40
2023-03-20T20:17:04.064Z,60.50
2023-03-20T20:19:54.484Z,60.50
2023-03-20T20:22:44.618Z,60.70
2023-03-20T20:25:34.306Z,60.80
2023-03-20T20:28:25.220Z,60.90
2023-03-20T20:31:16.104Z,61.00
2023-03-20T20:35:07.362Z,61.40
2023-03-20T20:40:26.902Z,61.30
2023-03-20T20:43:34.807Z,61.30
2023-03-20T20:46:27.041Z,61.00
2023-03-20T20:49:19.807Z,61.30
2023-03-20T20:52:10.352Z,61.00
2023-03-20T20:55:14.354Z,61.00
2023-03-20T20:58:09.027Z,60.90
2023-03-20T21:00:58.516Z,60.90
2023-03-20T21:03:49.212Z,60.70
2023-03-20T21:07:06.286Z,60.80
2023-03-20T21:09:48.094Z,60.60
2023-03-20T21:12:48.534Z,60.70
2023-03-20T21:15:47.727Z,60.80
2023-03-20T21:18:37.577Z,60.90
2023-03-20T21:21:28.257Z,61.20
2023-03-20T21:24:31.631Z,61.30
2023-03-20T21:27:22.629Z,61.40
2023-03-20T21:30:13.450Z,61.50
2023-03-20T21:33:03.183Z,61.60
2023-03-20T21:35:54.351Z,61.80
2023-03-20T21:39:06.833Z,61.80
2023-03-20T21:41:54.501Z,62.10
2023-03-20T21:45:35.659Z,61.90
2023-03-20T21:52:05.779Z,62.00
2023-03-20T21:58:08.333Z,62.40
2023-03-20T22:04:37.613Z,62.20
2023-03-20T22:10:53.367Z,62.30
2023-03-20T22:17:22.028Z,62.30
2023-03-20T22:26:56.598Z,62.50
2023-03-20T22:39:11.797Z,62.60
2023-03-20T22:42:26.003Z,62.60
2023-03-20T22:45:02.093Z,62.70
2023-03-20T22:47:52.962Z,62.60
2023-03-20T22:50:42.444Z,62.70
2023-03-20T22:53:32.302Z,62.80
2023-03-20T22:56:21.780Z,62.80
2023-03-20T22:59:12.561Z,62.90
2023-03-20T23:02:01.876Z,63.10
2023-03-20T23:04:52.506Z,63.00
2023-03-20T23:07:41.885Z,63.00
2023-03-20T23:10:31.164Z,63.00
2023-03-20T23:13:22.422Z,63.10
2023-03-20T23:16:13.576Z,63.10
2023-03-20T23:19:02.939Z,63.20
2023-03-20T23:21:52.229Z,63.10
2023-03-20T23:24:42.529Z,63.00
2023-03-20T23:27:31.922Z,63.10
2023-03-20T23:30:23.423Z,63.00
2023-03-20T23:33:16.504Z,63.00
2023-03-20T23:36:18.615Z,63.20
2023-03-20T23:39:13.124Z,63.10
2023-03-20T23:42:12.163Z,63.10
2023-03-20T23:45:19.672Z,63.10
2023-03-20T23:48:10.091Z,63.20
2023-03-20T23:51:00.984Z,63.10
2023-03-20T23:53:50.294Z,63.20
2023-03-20T23:56:40.053Z,63.20
2023-03-20T23:59:30.766Z,63.20
